This is the latest recevied weather packets stored in our database for station/object N8BAP. If no packets are shown the sender has not sent any weather packets the latest 1 day(s).
| Time | Temp. | Humidity | Pressure | Rain* | Wind** | Luminosity | Snow |
|---|---|---|---|---|---|---|---|
| 1777981911 | 15.56° C | 79% | 1013.7 hPa | 0 mm | 2.24 m/s, 247° | 30 W/m² | - |
| 1777981608 | 15° C | 80% | 1013.9 hPa | 0 mm | 1.34 m/s, 254° | 45 W/m² | - |
| 1777981304 | 15° C | 81% | 1014.1 hPa | 0 mm | 2.24 m/s, 238° | 48 W/m² | - |
| 1777981001 | 15° C | 81% | 1013.9 hPa | 0 mm | 1.79 m/s, 240° | 42 W/m² | - |
| 1777980698 | 15° C | 81% | 1014 hPa | 0 mm | 2.24 m/s, 240° | 43 W/m² | - |
| 1777980394 | 15° C | 80% | 1013.9 hPa | 0 mm | 1.79 m/s, 249° | 49 W/m² | - |
| 1777980092 | 15° C | 81% | 1013.8 hPa | 0 mm | 1.79 m/s, 264° | 45 W/m² | - |
| 1777979791 | 15° C | 80% | 1013.7 hPa | 0 mm | 1.79 m/s, 306° | 33 W/m² | - |
| 1777979488 | 15° C | 78% | 1013.8 hPa | 0 mm | 2.68 m/s, 260° | 22 W/m² | - |
| 1777979184 | 15.56° C | 76% | 1013.6 hPa | 0 mm | 3.13 m/s, 277° | 20 W/m² | - |
| 1777978881 | 15.56° C | 74% | 1013.8 hPa | 0 mm | 1.79 m/s, 298° | 13 W/m² | - |
| 1777978578 | 16.11° C | 69% | 1013.7 hPa | 0 mm | 2.24 m/s, 258° | 8 W/m² | - |
| 1777978273 | 16.67° C | 67% | 1013.5 hPa | 0 mm | 3.58 m/s, 263° | 6 W/m² | - |
| 1777977970 | 16.67° C | 66% | 1013.4 hPa | 0 mm | 2.24 m/s, 285° | 4 W/m² | - |
| 1777977668 | 17.22° C | 64% | 1013.5 hPa | 0 mm | 4.02 m/s, 258° | 3 W/m² | - |
| 1777977364 | 16.67° C | 63% | 1013.5 hPa | 0 mm | 4.02 m/s, 227° | 1 W/m² | - |
| 1777977062 | 16.67° C | 64% | 1013.5 hPa | 0 mm | 3.58 m/s, 224° | 0 W/m² | - |
| 1777976759 | 16.67° C | 64% | 1013.4 hPa | 0 mm | 3.13 m/s, 232° | 0 W/m² | - |
| 1777976457 | 16.67° C | 64% | 1013.4 hPa | 0 mm | 3.13 m/s, 232° | 0 W/m² | - |
| 1777976155 | 17.22° C | 64% | 1013.4 hPa | 0 mm | 3.13 m/s, 252° | 0 W/m² | - |
| 1777975851 | 16.67° C | 64% | 1013.4 hPa | 0 mm | 3.58 m/s, 213° | 0 W/m² | - |
| 1777975548 | 16.67° C | 64% | 1013.3 hPa | 0 mm | 2.68 m/s, 240° | 0 W/m² | - |
| 1777975245 | 16.67° C | 64% | 1013.5 hPa | 0 mm | 2.68 m/s, 223° | 0 W/m² | - |
| 1777974941 | 16.67° C | 64% | 1013.4 hPa | 0 mm | 3.13 m/s, 225° | 0 W/m² | - |
| 1777974638 | 16.67° C | 64% | 1013.5 hPa | 0 mm | 2.24 m/s, 243° | 0 W/m² | - |
* Rain latest hour (hover to see other rain measurements)
** Current wind speed in m/s (hover to see current wind gust speed)